Union Center, Pennsylvania
Current Conditions -  °F | °C
As of 1:15 PM on Thursday 27 Nov 2014 (Local Time) from KN38 Reporting Station
Overcast Overcast  
Wind Chill: 23°   Ceiling: 3000
Heat Index: 30°   Visibility: 10mi
Dew Point: 19°   Wind: 8mph
Humidity: 64%   Direction: 360°N
Pressure: 29.97"   Gusts: 17mph
Location:  41.669°N, 76.8999°W
Report Text: KN38 271815Z AUTO 36007G15KT 330V040 10SM BKN030 OVC036 M01/M07 A2997 RMK AO2
Loading
Personal Weather Stations






























Interactive Weather Map New forecast layout! Learn more

10-Day Weather Forecast

Advertisements
Track Severe Weather on mobile